College Heights, Illinois
Current Conditions -  °F | °C
As of 5:15 PM on Sunday 21 Dec 2014 (Local Time) from KHSB Reporting Station
Clear Clear  
Wind Chill: 34°   Ceiling: Unl
Heat Index: 39°   Visibility: 10mi
Dew Point: 31°   Wind: 7mph
Humidity: 73%   Direction: 60°ENE
Pressure: 30.09"   Gusts: NA
Location:  37.8101°N, 88.4411°W
Report Text: KHSB 212315Z AUTO 06006KT 10SM CLR 04/00 A3009 RMK AO2 T00401005
Loading
Personal Weather Stations






























Interactive Weather Map New forecast layout! Learn more

10-Day Weather Forecast

Advertisements
Track Severe Weather on mobile